Time;durP1;ratioP1;P1;durP2;ratioP2;P2;SDS_P1;SDS_P2;PMS_P1;PMS_P2;Temp;Humidity;BMP_temperature;BMP_pressure;BME280_temperature;BME280_humidity;BME280_pressure;Samples;Min_cycle;Max_cycle;Signal;HPM_P1;HPM_P2
2021/07/07 00:00:58;;;;;;;1.88;0.52;;;18.60;64.30;;;;;;4974651;28;20480;-83
2021/07/07 00:03:25;;;;;;;0.05;0.03;;;18.60;64.40;;;;;;5026975;28;20049;-82
2021/07/07 00:05:51;;;;;;;0.17;0.00;;;18.60;64.40;;;;;;5015362;28;20049;-83
2021/07/07 00:08:17;;;;;;;0.17;0.13;;;18.60;64.50;;;;;;5031161;28;20034;-82
2021/07/07 00:10:43;;;;;;;0.03;0.00;;;18.60;64.60;;;;;;5031354;28;20030;-84
2021/07/07 00:13:09;;;;;;;0.85;0.20;;;18.60;64.70;;;;;;5014710;28;20084;-84
2021/07/07 00:15:36;;;;;;;2.03;0.43;;;18.50;64.70;;;;;;5014688;28;20105;-83
2021/07/07 00:18:04;;;;;;;1.20;0.30;;;18.50;64.80;;;;;;5031075;28;20034;-83
2021/07/07 00:21:13;;;;;;;0.90;0.43;;;18.50;64.90;;;;;;5030764;28;20045;-84
2021/07/07 00:23:19;;;;;;;10.63;0.32;;;18.50;64.90;;;;;;5023468;28;20034;-83
2021/07/07 00:25:45;;;;;;;0.00;0.00;;;18.50;65.00;;;;;;5014202;28;20046;-83
2021/07/07 00:28:11;;;;;;;0.45;0.32;;;18.50;65.00;;;;;;5030723;28;20029;-85
2021/07/07 00:30:38;;;;;;;0.00;0.00;;;18.50;65.00;;;;;;5015551;28;20042;-83
2021/07/07 00:33:04;;;;;;;0.52;0.00;;;18.40;65.10;;;;;;5030804;28;20412;-84
2021/07/07 00:35:30;;;;;;;0.10;0.00;;;18.40;65.10;;;;;;5030765;28;20022;-84
2021/07/07 00:37:56;;;;;;;0.00;0.00;;;18.40;65.20;;;;;;5030877;28;20037;-83
2021/07/07 00:40:22;;;;;;;0.10;0.00;;;18.40;65.30;;;;;;5030584;28;20022;-84
2021/07/07 00:42:48;;;;;;;0.08;0.00;;;18.40;65.40;;;;;;5014435;28;20487;-82
2021/07/07 00:45:15;;;;;;;0.52;0.20;;;18.40;65.40;;;;;;5030035;28;20030;-84
2021/07/07 00:47:42;;;;;;;0.43;0.30;;;18.40;65.50;;;;;;5010684;28;20098;-84
2021/07/07 00:50:08;;;;;;;3.35;0.30;;;18.40;65.50;;;;;;5020108;28;20029;-84
2021/07/07 00:52:34;;;;;;;0.95;0.22;;;18.40;65.70;;;;;;5030415;28;20029;-83
2021/07/07 00:55:10;;;;;;;3.22;0.60;;;18.30;65.70;;;;;;5030774;28;20030;-83
2021/07/07 00:57:36;;;;;;;0.35;0.00;;;18.30;65.70;;;;;;5013501;28;20053;-83
2021/07/07 01:00:07;;;;;;;0.22;0.03;;;18.30;65.80;;;;;;5013034;28;20393;-83
2021/07/07 01:02:36;;;;;;;0.17;0.00;;;18.30;65.90;;;;;;5010386;28;20022;-83
2021/07/07 01:05:04;;;;;;;0.00;0.00;;;18.30;65.90;;;;;;5010332;28;20030;-83
2021/07/07 01:07:31;;;;;;;0.00;0.00;;;18.30;66.00;;;;;;5011489;28;20033;-81
2021/07/07 01:09:57;;;;;;;0.20;0.03;;;18.30;66.10;;;;;;4991484;28;20039;-84
2021/07/07 01:12:23;;;;;;;8.23;0.10;;;18.30;66.10;;;;;;4994370;28;20081;-84
2021/07/07 01:14:49;;;;;;;0.08;0.00;;;18.30;66.10;;;;;;4994018;28;20042;-83
2021/07/07 01:17:19;;;;;;;0.40;0.20;;;18.30;66.10;;;;;;5027993;28;20046;-84
2021/07/07 01:19:45;;;;;;;0.35;0.20;;;18.30;66.20;;;;;;5029851;28;20043;-83
2021/07/07 01:22:12;;;;;;;1.20;0.45;;;18.30;66.20;;;;;;5030170;28;20041;-82
2021/07/07 01:24:38;;;;;;;1.65;0.52;;;18.30;66.20;;;;;;5015051;28;20041;-83
2021/07/07 01:27:04;;;;;;;0.10;0.05;;;18.30;66.30;;;;;;5029413;28;20396;-83
2021/07/07 01:29:30;;;;;;;0.22;0.00;;;18.30;66.30;;;;;;5029595;28;20030;-84
2021/07/07 01:31:56;;;;;;;0.20;0.05;;;18.30;66.40;;;;;;5029447;28;20038;-83
2021/07/07 01:34:22;;;;;;;1.00;0.30;;;18.30;66.50;;;;;;5029863;28;20037;-83
2021/07/07 01:36:50;;;;;;;1.08;0.20;;;18.20;66.50;;;;;;5014934;28;20496;-84
2021/07/07 01:39:16;;;;;;;0.10;0.05;;;18.30;66.60;;;;;;5029622;28;20041;-84
2021/07/07 01:41:42;;;;;;;0.82;0.32;;;18.30;66.60;;;;;;5014101;28;20034;-83
2021/07/07 01:44:08;;;;;;;11.10;0.30;;;18.30;66.70;;;;;;5029587;28;20535;-83
2021/07/07 01:46:34;;;;;;;0.55;0.13;;;18.30;66.70;;;;;;5013694;28;20137;-82
2021/07/07 01:49:00;;;;;;;0.28;0.10;;;18.20;66.70;;;;;;5029849;28;20376;-82
2021/07/07 01:51:26;;;;;;;0.73;0.13;;;18.20;66.90;;;;;;5029566;28;20030;-83
2021/07/07 01:53:52;;;;;;;0.25;0.00;;;18.20;66.90;;;;;;5029237;28;20026;-83
2021/07/07 01:56:18;;;;;;;0.30;0.08;;;18.20;67.00;;;;;;5028816;28;20045;-81
2021/07/07 01:58:45;;;;;;;1.23;0.20;;;18.20;67.10;;;;;;5013074;28;20037;-82
2021/07/07 02:01:11;;;;;;;0.80;0.10;;;18.20;67.10;;;;;;5028789;28;20034;-82
2021/07/07 02:03:37;;;;;;;0.55;0.00;;;18.20;67.20;;;;;;5008947;28;20045;-82
2021/07/07 02:06:04;;;;;;;0.00;0.00;;;18.10;67.20;;;;;;5018900;28;20041;-83
2021/07/07 02:08:30;;;;;;;1.98;0.20;;;18.10;67.20;;;;;;5010295;28;20062;-84
2021/07/07 02:10:56;;;;;;;0.10;0.10;;;18.10;67.30;;;;;;5026474;28;20034;-82
2021/07/07 02:13:22;;;;;;;0.10;0.10;;;18.10;67.30;;;;;;5010463;28;20030;-83
2021/07/07 02:15:48;;;;;;;1.95;0.38;;;18.10;67.40;;;;;;4989242;28;20026;-83
2021/07/07 02:18:14;;;;;;;0.25;0.00;;;18.10;67.50;;;;;;4992540;28;20500;-87
2021/07/07 02:20:41;;;;;;;0.55;0.20;;;18.10;67.50;;;;;;4985809;28;20034;-81
2021/07/07 02:23:08;;;;;;;0.60;0.20;;;18.00;67.50;;;;;;4965152;28;20405;-83
2021/07/07 02:25:36;;;;;;;0.00;0.00;;;18.00;67.60;;;;;;4987804;28;20054;-84
2021/07/07 02:28:03;;;;;;;0.20;0.00;;;18.10;67.60;;;;;;5003544;28;20480;-83
2021/07/07 02:30:31;;;;;;;0.08;0.00;;;18.10;67.60;;;;;;4985678;28;20042;-84
2021/07/07 02:32:57;;;;;;;0.03;0.00;;;18.10;67.60;;;;;;4983830;28;20026;-81
2021/07/07 02:35:26;;;;;;;0.00;0.00;;;18.10;67.60;;;;;;5016013;28;20030;-83
2021/07/07 02:37:55;;;;;;;0.13;0.00;;;18.10;67.60;;;;;;5008221;28;20037;-83
2021/07/07 02:40:26;;;;;;;0.08;0.00;;;18.10;67.60;;;;;;5007954;28;20034;-84
2021/07/07 02:42:52;;;;;;;2.63;0.43;;;18.10;67.70;;;;;;4993005;28;20033;-84
2021/07/07 02:45:18;;;;;;;6.30;0.20;;;18.10;67.60;;;;;;5008058;28;20049;-82
2021/07/07 02:47:45;;;;;;;1.85;0.28;;;18.20;67.70;;;;;;5008496;28;20030;-83
2021/07/07 02:50:12;;;;;;;0.38;0.28;;;18.10;67.60;;;;;;5008442;28;20030;-83
2021/07/07 02:52:39;;;;;;;0.88;0.10;;;18.10;67.70;;;;;;5008005;28;20045;-84
2021/07/07 02:55:07;;;;;;;1.27;0.32;;;18.20;67.70;;;;;;5008659;28;20394;-83
2021/07/07 02:57:56;;;;;;;0.73;0.28;;;18.20;67.80;;;;;;4991704;28;20045;-81
2021/07/07 03:00:20;;;;;;;0.00;0.00;;;18.10;67.70;;;;;;5007531;28;20034;-81
2021/07/07 03:02:46;;;;;;;0.00;0.00;;;18.10;67.70;;;;;;5012845;28;20033;-83
2021/07/07 03:05:12;;;;;;;0.05;0.05;;;18.10;67.80;;;;;;5012803;28;20496;-83
2021/07/07 03:07:38;;;;;;;0.40;0.10;;;18.10;67.80;;;;;;5012344;28;20104;-84
2021/07/07 03:10:06;;;;;;;5.75;0.90;;;18.10;67.80;;;;;;5012891;28;20041;-84
2021/07/07 03:12:32;;;;;;;0.40;0.10;;;18.10;67.90;;;;;;5011974;28;20049;-83
2021/07/07 03:14:58;;;;;;;0.43;0.30;;;18.10;67.90;;;;;;5027643;28;20022;-82
2021/07/07 03:17:24;;;;;;;0.00;0.00;;;18.10;67.90;;;;;;5027430;28;20038;-84
2021/07/07 03:19:51;;;;;;;0.50;0.30;;;18.10;68.00;;;;;;5012549;28;20464;-83
2021/07/07 03:22:17;;;;;;;0.45;0.03;;;18.10;68.00;;;;;;5027446;28;20038;-84
2021/07/07 03:24:43;;;;;;;0.00;0.00;;;18.10;68.00;;;;;;5011768;28;20034;-84
2021/07/07 03:27:09;;;;;;;0.77;0.47;;;18.10;68.80;;;;;;5027372;28;20041;-83
2021/07/07 03:29:35;;;;;;;0.10;0.10;;;18.10;68.10;;;;;;5012284;28;20517;-83
2021/07/07 03:32:01;;;;;;;0.00;0.00;;;18.10;68.10;;;;;;5012048;28;20041;-83
2021/07/07 03:34:27;;;;;;;0.00;0.00;;;18.00;68.10;;;;;;5010602;28;20050;-83
2021/07/07 03:36:54;;;;;;;3.17;0.52;;;18.00;68.10;;;;;;5011441;28;20030;-84
2021/07/07 03:39:20;;;;;;;0.20;0.17;;;18.00;68.10;;;;;;5011323;28;20392;-83
2021/07/07 03:41:46;;;;;;;0.10;0.03;;;18.00;68.20;;;;;;5027507;28;20034;-85
2021/07/07 03:44:12;;;;;;;5.85;0.30;;;18.00;68.20;;;;;;5027346;28;20377;-82
2021/07/07 03:46:38;;;;;;;0.45;0.00;;;18.00;68.20;;;;;;5011580;28;20046;-84
2021/07/07 03:49:04;;;;;;;0.25;0.08;;;18.00;68.20;;;;;;5027870;28;20384;-83
2021/07/07 03:51:30;;;;;;;0.00;0.00;;;18.00;68.30;;;;;;4994790;28;20037;-85
2021/07/07 03:53:56;;;;;;;0.00;0.00;;;17.90;68.20;;;;;;5027390;28;20022;-84
2021/07/07 03:56:23;;;;;;;0.13;0.00;;;17.90;68.20;;;;;;5027053;28;20038;-83
2021/07/07 03:58:49;;;;;;;0.05;0.00;;;17.90;68.30;;;;;;5027455;28;20053;-82
2021/07/07 04:01:15;;;;;;;0.28;0.00;;;17.90;68.20;;;;;;5010645;28;20034;-83
2021/07/07 04:03:41;;;;;;;0.10;0.03;;;17.90;68.20;;;;;;5010382;28;20384;-85
2021/07/07 04:06:07;;;;;;;0.00;0.00;;;17.90;68.30;;;;;;5026823;28;20050;-84
2021/07/07 04:08:33;;;;;;;0.22;0.00;;;17.90;68.30;;;;;;5011805;28;20026;-83
2021/07/07 04:10:59;;;;;;;0.10;0.10;;;17.90;68.40;;;;;;5027256;28;20495;-83
2021/07/07 04:13:28;;;;;;;0.10;0.00;;;17.90;68.40;;;;;;5012388;28;20022;-83
2021/07/07 04:15:57;;;;;;;0.00;0.00;;;17.90;68.40;;;;;;5011931;28;20030;-84
2021/07/07 04:18:23;;;;;;;0.15;0.05;;;17.90;68.40;;;;;;5011716;28;20029;-84
2021/07/07 04:20:49;;;;;;;1.38;0.20;;;17.90;68.40;;;;;;5026688;28;20022;-86
2021/07/07 04:23:15;;;;;;;1.20;0.20;;;17.90;68.40;;;;;;5010916;28;20049;-84
2021/07/07 04:25:41;;;;;;;3.42;0.20;;;17.80;68.40;;;;;;5026899;28;20037;-84
2021/07/07 04:28:08;;;;;;;0.00;0.00;;;17.90;68.40;;;;;;5027139;28;20400;-83
2021/07/07 04:30:34;;;;;;;0.00;0.00;;;17.80;68.40;;;;;;5010314;28;20416;-84
2021/07/07 04:33:01;;;;;;;0.00;0.00;;;17.80;68.40;;;;;;5026768;28;20029;-82
2021/07/07 04:35:27;;;;;;;0.20;0.20;;;17.80;68.40;;;;;;5026565;28;20034;-84
2021/07/07 04:37:53;;;;;;;0.52;0.22;;;17.80;68.40;;;;;;5026915;28;20461;-83
2021/07/07 04:40:20;;;;;;;0.20;0.10;;;17.80;68.50;;;;;;5011807;28;20034;-81
2021/07/07 04:42:46;;;;;;;0.47;0.20;;;17.80;68.60;;;;;;5011001;28;20030;-84
2021/07/07 04:45:13;;;;;;;0.00;0.00;;;17.70;68.60;;;;;;5026368;28;20025;-83
2021/07/07 04:47:39;;;;;;;0.10;0.00;;;17.70;68.50;;;;;;5009910;28;20049;-83
2021/07/07 04:50:10;;;;;;;0.10;0.03;;;17.70;68.60;;;;;;5026817;28;20030;-84
2021/07/07 04:52:36;;;;;;;0.00;0.00;;;17.70;68.60;;;;;;5030681;28;20038;-82
2021/07/07 04:55:04;;;;;;;0.70;0.10;;;17.70;68.60;;;;;;5030575;28;20029;-85
2021/07/07 04:57:40;;;;;;;0.43;0.00;;;17.70;68.70;;;;;;5014024;28;20053;-83
2021/07/07 05:00:19;;;;;;;0.20;0.00;;;17.60;68.70;;;;;;5028630;28;20038;-84
2021/07/07 05:02:46;;;;;;;0.32;0.13;;;17.60;68.70;;;;;;5029906;28;20097;-84
2021/07/07 05:05:13;;;;;;;0.32;0.00;;;17.60;68.70;;;;;;5029828;28;20040;-83
2021/07/07 05:07:39;;;;;;;4.80;0.15;;;17.60;68.70;;;;;;5030036;28;20049;-82
2021/07/07 05:10:06;;;;;;;0.00;0.00;;;17.60;68.70;;;;;;5030336;28;20030;-82
2021/07/07 05:12:33;;;;;;;0.32;0.15;;;17.70;68.70;;;;;;5014152;28;20030;-84
2021/07/07 05:14:59;;;;;;;10.95;0.22;;;17.70;68.60;;;;;;5014816;28;20384;-83
2021/07/07 05:17:26;;;;;;;0.00;0.00;;;17.70;68.60;;;;;;5029594;28;20497;-84
2021/07/07 05:19:52;;;;;;;0.10;0.00;;;17.70;68.50;;;;;;5029778;28;20026;-84
2021/07/07 05:22:18;;;;;;;0.00;0.00;;;17.70;68.40;;;;;;5013473;28;20038;-83
2021/07/07 05:24:45;;;;;;;1.27;0.10;;;17.80;68.40;;;;;;4997753;28;20041;-84
2021/07/07 05:27:12;;;;;;;0.17;0.08;;;17.80;68.40;;;;;;5009469;28;20053;-83
2021/07/07 05:29:38;;;;;;;0.00;0.00;;;17.80;68.40;;;;;;5023234;28;20046;-83
2021/07/07 05:32:05;;;;;;;0.20;0.10;;;17.90;68.40;;;;;;5014203;28;20041;-84
2021/07/07 05:34:31;;;;;;;0.55;0.00;;;18.10;68.10;;;;;;5029516;28;20030;-84
2021/07/07 05:36:57;;;;;;;0.03;0.03;;;18.30;67.70;;;;;;4993828;28;20034;-83
2021/07/07 05:39:23;;;;;;;0.08;0.08;;;18.50;67.30;;;;;;5029695;28;20033;-83
2021/07/07 05:41:49;;;;;;;0.75;0.05;;;18.60;67.00;;;;;;5029481;28;20041;-82
2021/07/07 05:44:15;;;;;;;0.00;0.00;;;18.60;67.00;;;;;;5014218;28;20038;-84
2021/07/07 05:46:41;;;;;;;0.00;0.00;;;18.80;67.00;;;;;;5028569;28;20052;-84
2021/07/07 05:49:07;;;;;;;0.15;0.08;;;18.90;66.80;;;;;;5029521;28;20605;-83
2021/07/07 05:51:34;;;;;;;4.10;0.10;;;19.00;66.60;;;;;;5014544;28;20030;-83
2021/07/07 05:54:00;;;;;;;0.00;0.00;;;19.10;66.40;;;;;;5029254;28;20030;-82
2021/07/07 05:56:26;;;;;;;0.20;0.00;;;19.30;66.20;;;;;;5013989;28;20018;-84
2021/07/07 05:58:52;;;;;;;0.10;0.00;;;19.40;65.90;;;;;;5029371;28;20488;-84
2021/07/07 06:01:18;;;;;;;0.80;0.40;;;19.50;65.60;;;;;;5028117;28;20041;-83
2021/07/07 06:03:44;;;;;;;0.08;0.00;;;19.60;65.50;;;;;;4980503;28;20481;-84
2021/07/07 06:06:10;;;;;;;0.30;0.10;;;19.80;65.30;;;;;;5013726;28;20030;-83
2021/07/07 06:08:36;;;;;;;0.35;0.20;;;19.90;65.10;;;;;;5029125;28;20026;-84
2021/07/07 06:11:02;;;;;;;0.10;0.10;;;20.00;64.90;;;;;;5028995;28;20018;-84
2021/07/07 06:13:28;;;;;;;0.57;0.15;;;19.90;64.90;;;;;;5012641;28;20038;-84
2021/07/07 06:15:54;;;;;;;0.03;0.03;;;19.80;65.20;;;;;;4985674;28;20023;-84
2021/07/07 06:18:20;;;;;;;0.00;0.00;;;19.80;65.30;;;;;;4993517;28;20042;-84
2021/07/07 06:20:47;;;;;;;0.00;0.00;;;19.80;65.30;;;;;;5009048;28;20037;-84
2021/07/07 06:23:13;;;;;;;0.30;0.08;;;19.90;65.20;;;;;;4994084;28;20045;-84
2021/07/07 06:25:39;;;;;;;0.65;0.20;;;20.00;64.90;;;;;;5009096;28;20037;-83
2021/07/07 06:28:05;;;;;;;0.00;0.00;;;20.30;64.70;;;;;;5009226;28;20061;-83
2021/07/07 06:30:32;;;;;;;0.10;0.10;;;20.50;64.10;;;;;;5008266;28;20043;-83
2021/07/07 06:32:59;;;;;;;0.10;0.00;;;20.80;63.60;;;;;;5008952;28;20022;-83
2021/07/07 06:35:25;;;;;;;0.52;0.00;;;21.00;63.20;;;;;;4992321;28;20520;-83
2021/07/07 06:37:52;;;;;;;0.20;0.00;;;21.20;62.80;;;;;;5009007;28;20058;-84
2021/07/07 06:40:19;;;;;;;0.00;0.00;;;21.20;62.60;;;;;;4992484;28;20053;-80
2021/07/07 06:42:45;;;;;;;0.20;0.10;;;21.20;62.70;;;;;;4994205;28;20030;-83
2021/07/07 06:45:11;;;;;;;0.20;0.20;;;21.20;62.90;;;;;;4989208;28;20513;-84
2021/07/07 06:47:38;;;;;;;0.30;0.17;;;21.10;62.90;;;;;;5021713;28;20162;-83
2021/07/07 06:50:05;;;;;;;0.00;0.00;;;21.00;62.90;;;;;;5028267;28;20389;-82
2021/07/07 06:52:31;;;;;;;0.00;0.00;;;21.00;63.00;;;;;;5028442;28;20029;-84
2021/07/07 06:54:58;;;;;;;0.75;0.25;;;21.20;62.90;;;;;;5009476;28;20042;-84
2021/07/07 06:57:24;;;;;;;0.10;0.05;;;21.30;62.60;;;;;;5012794;28;20033;-84
2021/07/07 06:59:50;;;;;;;0.13;0.13;;;21.40;62.30;;;;;;5012615;28;20037;-83
2021/07/07 07:02:16;;;;;;;0.00;0.00;;;21.60;62.10;;;;;;5027661;28;20420;-84
2021/07/07 07:04:42;;;;;;;0.10;0.00;;;21.60;61.70;;;;;;5028054;28;20034;-84
2021/07/07 07:07:08;;;;;;;0.20;0.00;;;21.60;61.50;;;;;;5012951;28;20042;-85
2021/07/07 07:09:34;;;;;;;0.35;0.00;;;21.60;61.60;;;;;;5013204;28;20053;-84
2021/07/07 07:12:00;;;;;;;0.05;0.00;;;21.40;61.80;;;;;;5027968;28;20033;-84
2021/07/07 07:14:26;;;;;;;0.05;0.00;;;21.30;62.10;;;;;;5027215;28;20033;-84
2021/07/07 07:16:52;;;;;;;0.10;0.00;;;21.40;62.10;;;;;;5027721;28;20045;-84
2021/07/07 07:19:18;;;;;;;0.15;0.15;;;21.60;61.70;;;;;;5027956;28;20062;-84
2021/07/07 07:21:45;;;;;;;0.38;0.00;;;21.80;61.10;;;;;;5011940;28;20036;-84
2021/07/07 07:24:12;;;;;;;0.65;0.10;;;21.80;60.80;;;;;;5027755;28;20030;-84
2021/07/07 07:26:38;;;;;;;0.10;0.10;;;22.00;60.80;;;;;;5027470;28;20049;-85
2021/07/07 07:29:05;;;;;;;3.42;0.10;;;22.10;60.30;;;;;;5027235;28;20033;-83
2021/07/07 07:31:31;;;;;;;0.00;0.00;;;22.40;59.90;;;;;;5027262;28;20038;-84
2021/07/07 07:33:57;;;;;;;0.00;0.00;;;22.50;59.70;;;;;;4991413;28;20044;-84
2021/07/07 07:36:23;;;;;;;0.32;0.03;;;22.50;59.50;;;;;;5012140;28;20030;-84
2021/07/07 07:38:58;;;;;;;0.00;0.00;;;22.60;59.40;;;;;;5027508;28;20029;-84
2021/07/07 07:41:27;;;;;;;0.35;0.10;;;22.70;59.30;;;;;;5026663;28;20034;-83
2021/07/07 07:43:53;;;;;;;0.00;0.00;;;22.80;58.90;;;;;;5027021;28;20484;-84
2021/07/07 07:46:20;;;;;;;0.00;0.00;;;22.90;58.80;;;;;;5026807;28;20038;-82
2021/07/07 07:48:46;;;;;;;0.10;0.00;;;22.80;58.90;;;;;;4995221;28;20041;-84
2021/07/07 07:51:12;;;;;;;0.10;0.00;;;22.80;58.90;;;;;;5007881;28;20038;-82
2021/07/07 07:53:38;;;;;;;0.10;0.00;;;22.90;58.70;;;;;;5004277;28;20041;-85
2021/07/07 07:56:04;;;;;;;0.20;0.00;;;23.10;58.60;;;;;;5012006;28;20025;-83
2021/07/07 07:58:30;;;;;;;0.10;0.00;;;23.30;58.20;;;;;;5011975;28;20373;-83
2021/07/07 08:00:56;;;;;;;0.00;0.00;;;23.50;57.80;;;;;;5012217;28;20030;-84
2021/07/07 08:03:22;;;;;;;1.00;0.25;;;23.60;57.60;;;;;;5027160;28;20389;-84
2021/07/07 08:05:48;;;;;;;1.02;0.40;;;23.80;57.30;;;;;;5011835;28;20053;-84
2021/07/07 08:08:14;;;;;;;0.08;0.08;;;23.90;57.00;;;;;;5027129;28;20041;-86
2021/07/07 08:10:40;;;;;;;0.00;0.00;;;23.80;57.20;;;;;;5027201;28;20037;-85
2021/07/07 08:13:07;;;;;;;0.05;0.00;;;23.80;57.30;;;;;;5012124;28;20049;-85
2021/07/07 08:15:34;;;;;;;0.10;0.00;;;23.80;57.10;;;;;;5010719;28;20037;-85
2021/07/07 08:18:00;;;;;;;3.65;0.05;;;24.00;56.90;;;;;;5026999;28;20029;-85
2021/07/07 08:20:26;;;;;;;0.10;0.10;;;24.20;56.50;;;;;;5027048;28;20034;-85
2021/07/07 08:22:52;;;;;;;2.10;0.25;;;24.40;56.20;;;;;;5012226;28;20041;-85
2021/07/07 08:25:18;;;;;;;0.10;0.00;;;24.70;55.90;;;;;;5011582;28;20037;-85
2021/07/07 08:27:45;;;;;;;2.20;0.10;;;24.90;55.50;;;;;;5015876;28;20053;-85
2021/07/07 08:30:12;;;;;;;0.00;0.00;;;25.20;55.20;;;;;;5030450;28;20042;-84
2021/07/07 08:32:38;;;;;;;0.00;0.00;;;25.30;54.70;;;;;;5030802;28;20030;-85
2021/07/07 08:35:05;;;;;;;1.65;0.00;;;25.20;54.80;;;;;;5030778;28;20384;-87
2021/07/07 08:37:31;;;;;;;0.00;0.00;;;25.10;55.00;;;;;;5030908;28;20038;-85
2021/07/07 08:39:57;;;;;;;0.20;0.00;;;24.90;55.20;;;;;;4982580;28;20030;-85
2021/07/07 08:42:23;;;;;;;0.00;0.00;;;24.70;55.30;;;;;;5015245;28;20495;-87
2021/07/07 08:44:49;;;;;;;6.03;0.28;;;24.80;55.40;;;;;;5030702;28;20030;-85
2021/07/07 08:47:15;;;;;;;0.08;0.00;;;24.70;55.30;;;;;;5013548;28;20061;-85
2021/07/07 08:49:41;;;;;;;0.00;0.00;;;24.80;55.20;;;;;;5030604;28;20033;-84
2021/07/07 08:52:07;;;;;;;0.00;0.00;;;24.80;55.00;;;;;;5015509;28;20041;-84
2021/07/07 08:54:34;;;;;;;0.00;0.00;;;24.90;54.80;;;;;;5014684;28;20033;-84
2021/07/07 08:57:07;;;;;;;0.00;0.00;;;25.00;54.70;;;;;;5030160;28;20037;-84
2021/07/07 08:59:33;;;;;;;0.00;0.00;;;24.90;54.50;;;;;;5029587;28;20029;-84
2021/07/07 09:02:11;;;;;;;0.20;0.00;;;24.90;54.50;;;;;;5029894;28;20026;-84
2021/07/07 09:04:42;;;;;;;0.00;0.00;;;24.90;54.40;;;;;;5013861;28;20025;-84
2021/07/07 09:07:09;;;;;;;0.00;0.00;;;24.80;54.40;;;;;;5030027;28;20044;-83
2021/07/07 09:09:48;;;;;;;0.03;0.00;;;24.70;54.50;;;;;;5013632;28;20033;-87
2021/07/07 09:12:18;;;;;;;0.10;0.08;;;24.70;54.50;;;;;;5029430;28;20039;-84
2021/07/07 09:14:45;;;;;;;3.72;0.10;;;24.80;54.30;;;;;;5029615;28;20022;-83
2021/07/07 09:17:16;;;;;;;0.10;0.00;;;24.90;54.00;;;;;;5013028;28;20037;-84
2021/07/07 09:19:43;;;;;;;0.15;0.00;;;25.00;53.70;;;;;;5013036;28;20051;-85
2021/07/07 09:22:11;;;;;;;8.40;0.32;;;25.00;53.60;;;;;;5015261;28;20038;-83
2021/07/07 09:24:45;;;;;;;0.10;0.05;;;25.20;53.50;;;;;;5013488;28;20022;-85
2021/07/07 09:27:16;;;;;;;0.08;0.00;;;25.30;52.90;;;;;;5029551;28;20037;-83
2021/07/07 09:29:42;;;;;;;;;;;25.30;52.90;;;;;;5014907;28;20037;-83
2021/07/07 09:32:16;;;;;;;0.00;0.00;;;25.40;53.00;;;;;;5014188;28;20012;-84
2021/07/07 09:34:44;;;;;;;0.00;0.00;;;25.50;52.80;;;;;;5029529;28;20034;-85
2021/07/07 09:37:20;;;;;;;0.22;0.08;;;25.70;52.70;;;;;;5028428;28;20022;-84
2021/07/07 09:39:46;;;;;;;0.00;0.00;;;25.90;52.30;;;;;;5011898;28;20026;-83
2021/07/07 09:42:12;;;;;;;0.00;0.00;;;26.30;52.00;;;;;;5029663;28;20037;-84
2021/07/07 09:44:38;;;;;;;0.00;0.00;;;26.50;51.50;;;;;;5014099;28;20492;-84
2021/07/07 09:47:05;;;;;;;0.10;0.00;;;26.80;51.20;;;;;;5013783;28;20046;-85
2021/07/07 09:49:32;;;;;;;1.85;0.52;;;26.90;50.90;;;;;;5013191;28;20049;-84
2021/07/07 09:51:59;;;;;;;0.10;0.00;;;27.10;50.70;;;;;;4993295;28;20040;-84
2021/07/07 09:54:26;;;;;;;0.00;0.00;;;27.20;50.60;;;;;;5028885;28;20029;-85
2021/07/07 09:56:52;;;;;;;0.00;0.00;;;27.20;50.30;;;;;;5029229;28;20029;-84
2021/07/07 09:59:18;;;;;;;0.35;0.10;;;27.10;50.30;;;;;;5028785;28;20539;-85
2021/07/07 10:01:45;;;;;;;0.25;0.03;;;27.00;50.40;;;;;;5013640;28;20044;-86
2021/07/07 10:04:12;;;;;;;0.10;0.00;;;27.10;50.30;;;;;;5029289;28;20029;-85
2021/07/07 10:06:39;;;;;;;0.45;0.25;;;27.20;50.30;;;;;;5013160;28;20034;-85
2021/07/07 10:09:05;;;;;;;0.25;0.10;;;27.20;50.10;;;;;;5008691;28;20051;-85
2021/07/07 10:11:31;;;;;;;0.10;0.00;;;27.20;50.00;;;;;;5021710;28;20025;-84
2021/07/07 10:13:57;;;;;;;0.00;0.00;;;27.40;49.80;;;;;;5029165;28;20034;-85
2021/07/07 10:16:23;;;;;;;0.90;0.10;;;27.30;49.60;;;;;;5011687;28;20492;-85
2021/07/07 10:18:49;;;;;;;0.13;0.00;;;27.20;49.60;;;;;;5013047;28;20041;-85
2021/07/07 10:21:15;;;;;;;0.00;0.00;;;27.20;49.70;;;;;;5028806;28;20033;-86
2021/07/07 10:23:41;;;;;;;0.00;0.00;;;27.20;49.50;;;;;;5028520;28;20036;-84
2021/07/07 10:26:08;;;;;;;1.17;0.43;;;27.40;49.30;;;;;;5028767;28;20029;-86
2021/07/07 10:28:34;;;;;;;0.10;0.00;;;27.50;48.90;;;;;;5028562;28;20045;-85
2021/07/07 10:31:02;;;;;;;0.13;0.03;;;27.60;48.60;;;;;;5012336;28;20042;-85
2021/07/07 10:33:29;;;;;;;0.00;0.00;;;27.80;48.40;;;;;;5028158;28;20499;-85
2021/07/07 10:36:32;;;;;;;0.00;0.00;;;27.90;48.20;;;;;;5028445;28;20029;-85
2021/07/07 10:39:00;;;;;;;1.60;0.13;;;28.00;47.80;;;;;;5027701;28;20037;-85
2021/07/07 10:41:42;;;;;;;0.00;0.00;;;28.00;47.60;;;;;;5011495;28;20030;-86
2021/07/07 10:44:20;;;;;;;0.20;0.10;;;27.90;47.50;;;;;;5012251;28;20076;-85
2021/07/07 10:47:00;;;;;;;0.00;0.00;;;27.90;47.50;;;;;;5026296;28;20041;-85
2021/07/07 10:49:39;;;;;;;1.10;0.28;;;28.00;47.50;;;;;;5012687;28;20034;-85
2021/07/07 10:52:09;;;;;;;0.00;0.00;;;28.10;47.30;;;;;;5009687;28;20026;-85
2021/07/07 10:54:37;;;;;;;0.10;0.00;;;28.10;47.20;;;;;;5011540;28;20041;-85
2021/07/07 10:57:04;;;;;;;0.00;0.00;;;28.10;47.20;;;;;;5028258;28;20503;-85
2021/07/07 10:59:37;;;;;;;0.57;0.25;;;28.20;47.20;;;;;;5028166;28;20029;-85
2021/07/07 11:02:07;;;;;;;1.65;0.00;;;28.30;47.00;;;;;;5012354;28;20034;-85
2021/07/07 11:04:40;;;;;;;0.10;0.00;;;28.30;47.00;;;;;;4994845;28;20042;-84
2021/07/07 11:07:31;;;;;;;0.00;0.00;;;28.40;46.90;;;;;;5027765;28;20437;-85
2021/07/07 11:10:19;;;;;;;0.13;0.00;;;28.40;46.70;;;;;;5013492;28;20038;-85
2021/07/07 11:12:45;;;;;;;0.00;0.00;;;28.50;46.70;;;;;;5010070;28;20046;-85
2021/07/07 11:15:16;;;;;;;0.28;0.10;;;28.60;46.70;;;;;;5012102;28;20361;-84
2021/07/07 11:17:46;;;;;;;0.03;0.00;;;28.60;46.50;;;;;;5012536;28;20022;-84
2021/07/07 11:20:20;;;;;;;0.10;0.00;;;28.70;46.40;;;;;;5027037;28;20464;-81
2021/07/07 11:23:03;;;;;;;0.00;0.00;;;28.80;46.30;;;;;;5012742;28;20503;-86
2021/07/07 11:25:29;;;;;;;0.00;0.00;;;28.90;46.20;;;;;;5027226;28;20037;-84
2021/07/07 11:27:56;;;;;;;0.00;0.00;;;28.90;46.10;;;;;;5012987;28;20034;-86
2021/07/07 11:30:22;;;;;;;0.22;0.10;;;28.90;46.00;;;;;;5026991;28;20049;-84
2021/07/07 11:32:49;;;;;;;0.05;0.00;;;28.80;46.10;;;;;;5007375;28;20470;-86
2021/07/07 11:35:25;;;;;;;0.20;0.17;;;28.60;46.30;;;;;;5017350;28;20044;-84
2021/07/07 11:37:55;;;;;;;0.05;0.00;;;28.20;46.20;;;;;;5027660;28;20025;-82
2021/07/07 11:40:22;;;;;;;0.17;0.10;;;27.80;46.70;;;;;;5027455;28;24119;-83
2021/07/07 11:43:01;;;;;;;0.80;0.00;;;27.60;46.80;;;;;;4995423;28;20033;-85
2021/07/07 11:45:32;;;;;;;0.00;0.00;;;27.70;46.80;;;;;;5027114;28;20037;-84
2021/07/07 11:48:12;;;;;;;0.00;0.00;;;27.80;46.50;;;;;;5012221;28;20034;-85
2021/07/07 11:50:44;;;;;;;0.00;0.00;;;28.00;46.30;;;;;;5011776;28;20040;-85
2021/07/07 11:53:10;;;;;;;0.15;0.00;;;28.10;46.00;;;;;;5026567;28;20526;-85
2021/07/07 11:55:47;;;;;;;0.10;0.00;;;28.20;45.70;;;;;;5027475;28;20404;-85
2021/07/07 11:58:27;;;;;;;0.20;0.00;;;28.40;45.50;;;;;;5012159;28;20357;-83
2021/07/07 12:00:55;;;;;;;0.10;0.00;;;28.50;45.10;;;;;;5002695;28;20034;-84
2021/07/07 12:03:22;;;;;;;0.00;0.00;;;28.50;45.10;;;;;;5007557;28;20400;-83
2021/07/07 12:05:53;;;;;;;0.00;0.00;;;28.50;45.10;;;;;;5006752;28;20473;-84
2021/07/07 12:08:24;;;;;;;0.00;0.00;;;28.50;44.90;;;;;;4990647;28;20065;-82
2021/07/07 12:10:52;;;;;;;0.00;0.00;;;28.60;44.90;;;;;;5007515;28;20469;-85
2021/07/07 12:13:28;;;;;;;0.00;0.00;;;28.70;44.80;;;;;;5007543;28;20026;-85
2021/07/07 12:16:18;;;;;;;0.00;0.00;;;28.80;44.50;;;;;;4975864;28;20030;-85
2021/07/07 12:18:49;;;;;;;0.35;0.13;;;28.80;44.30;;;;;;4991692;28;20042;-85
2021/07/07 12:21:28;;;;;;;0.00;0.00;;;28.80;44.20;;;;;;4990987;28;20033;-81
2021/07/07 12:24:00;;;;;;;0.00;0.00;;;28.90;44.00;;;;;;4992166;28;20030;-85
2021/07/07 12:26:28;;;;;;;0.00;0.00;;;28.90;44.00;;;;;;4992213;28;20029;-85
2021/07/07 12:28:56;;;;;;;0.00;0.00;;;28.80;43.90;;;;;;4992361;28;20045;-85
2021/07/07 12:31:23;;;;;;;0.00;0.00;;;28.60;44.10;;;;;;5016897;28;20052;-85
2021/07/07 12:33:55;;;;;;;0.00;0.00;;;28.30;44.20;;;;;;5012084;28;20044;-85
2021/07/07 12:36:31;;;;;;;0.43;0.08;;;28.20;44.40;;;;;;5007193;28;20034;-84
2021/07/07 12:39:01;;;;;;;0.00;0.00;;;28.10;44.40;;;;;;5022930;28;20026;-85
2021/07/07 12:41:58;;;;;;;0.00;0.00;;;28.10;44.30;;;;;;5026904;28;20018;-84
2021/07/07 12:44:26;;;;;;;0.00;0.00;;;28.20;44.10;;;;;;5012983;28;20034;-84
2021/07/07 12:47:08;;;;;;;0.00;0.00;;;28.30;44.00;;;;;;5026704;28;20057;-84
2021/07/07 12:49:54;;;;;;;0.00;0.00;;;28.50;43.90;;;;;;5010466;28;20045;-85
2021/07/07 12:52:21;;;;;;;0.10;0.00;;;28.60;43.50;;;;;;4993269;28;20511;-84